Hauptseite
METAR-TAF:

METAR-TAF

Flughäfen :

Flughafen Münster/Osnabrück

Münster-Osnabrück, Deutschland

Breite: 52-08N, Länge: 007-42E, Höhe: 48 m

Beobachtung

Neuester Wetterbericht von vor 11 Minuten, um 23:20 UTC
Wind 2 kt aus unterschiedlichen Richtungen
Temperatur 17°C
Luftfeuchtigkeit 82%
Luftdruck 1019 hPa
Sichtweite 10 km oder mehr
keine Wolken unter 1500 m und keine Kumulonimbus oder Gewitterwolken

METAR: EDDG 212320Z VRB02KT CAVOK 17/14 Q1019 NOSIG

Zeit: 01:31 (23:31 UTC)

Prognose

Neuester Wetterbericht von vor 6 Stunden und 31 Minuten, um 17:00 UTC
Gültige Prognose vom 21 um 18 UTC bis 22 um 18 UTC
Wind 2 kt aus unterschiedlichen Richtungen
Sichtweite 10 km oder mehr
keine Wolken unter 1500 m und keine Kumulonimbus oder Gewitterwolken
Übergehend zu
vom 22 um 09 UTC bis 22 um 11 UTC
Wind 6 kt aus West/Südwest

TAF: EDDG 211700Z 2118/2218 VRB02KT CAVOK BECMG 2209/2211 24006KT

Wetterbeobachtungen und Prognosen von mehr als 4000 Flughäfen (METAR und TAF Bericht).

Die verfügbaren Stationen werden durch gelbe und rote Markierungen auf der Karte dargestellt.

Führen Sie die Maus auf sie, um den Namen der Station zu sehen.

Darauf klicken, um die Beobachtung von Wetterbeobachtungen und Prognosen zu sehen.

Um die Karte zu ändern : klicken Sie auf den grünen Tasten mit einem schwarzen Kreuz Zum Vergrößern, auf den grünen Button mit einem Gedankenstrich zu verkleinern, oder auf die grünen Pfeile für benachbarte Karten.


METAR-TAF: